sensor_id;sensor_type;location;lat;lon;timestamp;P1;durP1;ratioP1;P2;durP2;ratioP2
42770;SDS011;28426;42.872;25.314;2024-03-08T00:01:49;6.55;;;3.63;;
42770;SDS011;28426;42.872;25.314;2024-03-08T00:04:23;6.63;;;3.50;;
42770;SDS011;28426;42.872;25.314;2024-03-08T00:06:53;5.40;;;3.13;;
42770;SDS011;28426;42.872;25.314;2024-03-08T00:09:24;6.05;;;3.00;;
42770;SDS011;28426;42.872;25.314;2024-03-08T00:11:58;6.43;;;3.25;;
42770;SDS011;28426;42.872;25.314;2024-03-08T00:14:28;7.00;;;3.83;;
42770;SDS011;28426;42.872;25.314;2024-03-08T00:17:00;7.95;;;3.80;;
42770;SDS011;28426;42.872;25.314;2024-03-08T00:19:31;6.05;;;3.20;;
42770;SDS011;28426;42.872;25.314;2024-03-08T00:22:02;7.30;;;4.05;;
42770;SDS011;28426;42.872;25.314;2024-03-08T00:24:32;7.53;;;3.58;;
42770;SDS011;28426;42.872;25.314;2024-03-08T00:27:04;6.47;;;3.13;;
42770;SDS011;28426;42.872;25.314;2024-03-08T00:29:36;5.35;;;2.42;;
42770;SDS011;28426;42.872;25.314;2024-03-08T00:32:07;4.57;;;2.70;;
42770;SDS011;28426;42.872;25.314;2024-03-08T00:34:40;5.63;;;2.55;;
42770;SDS011;28426;42.872;25.314;2024-03-08T00:37:11;8.02;;;3.72;;
42770;SDS011;28426;42.872;25.314;2024-03-08T00:39:42;4.82;;;2.85;;
42770;SDS011;28426;42.872;25.314;2024-03-08T00:42:13;6.70;;;3.13;;
42770;SDS011;28426;42.872;25.314;2024-03-08T00:44:43;6.55;;;3.25;;
42770;SDS011;28426;42.872;25.314;2024-03-08T00:47:15;5.65;;;3.10;;
42770;SDS011;28426;42.872;25.314;2024-03-08T00:49:49;6.15;;;3.10;;
42770;SDS011;28426;42.872;25.314;2024-03-08T00:52:20;5.95;;;2.92;;
42770;SDS011;28426;42.872;25.314;2024-03-08T00:54:51;5.68;;;3.30;;
42770;SDS011;28426;42.872;25.314;2024-03-08T00:57:22;5.22;;;2.85;;
42770;SDS011;28426;42.872;25.314;2024-03-08T00:59:52;6.88;;;3.40;;
42770;SDS011;28426;42.872;25.314;2024-03-08T01:02:23;5.13;;;2.78;;
42770;SDS011;28426;42.872;25.314;2024-03-08T01:04:57;5.18;;;2.67;;
42770;SDS011;28426;42.872;25.314;2024-03-08T01:07:30;6.30;;;3.60;;
42770;SDS011;28426;42.872;25.314;2024-03-08T01:10:01;8.48;;;3.53;;
42770;SDS011;28426;42.872;25.314;2024-03-08T01:12:31;7.32;;;3.40;;
42770;SDS011;28426;42.872;25.314;2024-03-08T01:15:02;5.38;;;2.97;;
42770;SDS011;28426;42.872;25.314;2024-03-08T01:17:34;6.82;;;3.30;;
42770;SDS011;28426;42.872;25.314;2024-03-08T01:20:08;4.18;;;2.50;;
42770;SDS011;28426;42.872;25.314;2024-03-08T01:22:40;5.75;;;2.78;;
42770;SDS011;28426;42.872;25.314;2024-03-08T01:25:11;5.22;;;2.65;;
42770;SDS011;28426;42.872;25.314;2024-03-08T01:27:41;5.30;;;2.70;;
42770;SDS011;28426;42.872;25.314;2024-03-08T01:30:12;4.97;;;2.72;;
42770;SDS011;28426;42.872;25.314;2024-03-08T01:32:44;7.32;;;3.40;;
42770;SDS011;28426;42.872;25.314;2024-03-08T01:35:18;6.78;;;3.70;;
42770;SDS011;28426;42.872;25.314;2024-03-08T01:37:49;7.32;;;3.80;;
42770;SDS011;28426;42.872;25.314;2024-03-08T01:40:20;6.00;;;3.50;;
42770;SDS011;28426;42.872;25.314;2024-03-08T01:42:51;7.38;;;3.58;;
42770;SDS011;28426;42.872;25.314;2024-03-08T01:45:21;4.93;;;2.60;;
42770;SDS011;28426;42.872;25.314;2024-03-08T01:47:52;6.00;;;3.20;;
42770;SDS011;28426;42.872;25.314;2024-03-08T01:50:25;5.43;;;2.97;;
42770;SDS011;28426;42.872;25.314;2024-03-08T01:52:56;5.07;;;3.10;;
42770;SDS011;28426;42.872;25.314;2024-03-08T01:55:27;6.25;;;3.05;;
42770;SDS011;28426;42.872;25.314;2024-03-08T01:57:59;5.40;;;3.35;;
42770;SDS011;28426;42.872;25.314;2024-03-08T02:00:29;6.47;;;3.38;;
42770;SDS011;28426;42.872;25.314;2024-03-08T02:03:01;6.53;;;3.55;;
42770;SDS011;28426;42.872;25.314;2024-03-08T02:05:35;5.95;;;3.13;;
42770;SDS011;28426;42.872;25.314;2024-03-08T02:08:07;4.50;;;2.38;;
42770;SDS011;28426;42.872;25.314;2024-03-08T02:10:41;7.55;;;3.40;;
42770;SDS011;28426;42.872;25.314;2024-03-08T02:13:12;5.97;;;3.22;;
42770;SDS011;28426;42.872;25.314;2024-03-08T02:15:49;7.13;;;3.78;;
42770;SDS011;28426;42.872;25.314;2024-03-08T02:18:41;5.88;;;3.25;;
42770;SDS011;28426;42.872;25.314;2024-03-08T02:21:14;6.97;;;3.53;;
42770;SDS011;28426;42.872;25.314;2024-03-08T02:23:48;6.18;;;3.53;;
42770;SDS011;28426;42.872;25.314;2024-03-08T02:26:19;6.47;;;3.20;;
42770;SDS011;28426;42.872;25.314;2024-03-08T02:28:50;6.30;;;3.33;;
42770;SDS011;28426;42.872;25.314;2024-03-08T02:31:21;7.05;;;3.30;;
42770;SDS011;28426;42.872;25.314;2024-03-08T02:33:52;5.45;;;3.22;;
42770;SDS011;28426;42.872;25.314;2024-03-08T02:36:25;7.10;;;4.22;;
42770;SDS011;28426;42.872;25.314;2024-03-08T02:38:56;6.30;;;3.30;;
42770;SDS011;28426;42.872;25.314;2024-03-08T02:41:26;5.63;;;3.17;;
42770;SDS011;28426;42.872;25.314;2024-03-08T02:43:57;6.32;;;3.10;;
42770;SDS011;28426;42.872;25.314;2024-03-08T02:46:28;6.03;;;3.50;;
42770;SDS011;28426;42.872;25.314;2024-03-08T02:48:58;8.55;;;3.60;;
42770;SDS011;28426;42.872;25.314;2024-03-08T02:51:32;6.30;;;3.35;;
42770;SDS011;28426;42.872;25.314;2024-03-08T02:54:03;5.95;;;3.00;;
42770;SDS011;28426;42.872;25.314;2024-03-08T02:56:35;9.85;;;3.78;;
42770;SDS011;28426;42.872;25.314;2024-03-08T02:59:06;6.20;;;3.08;;
42770;SDS011;28426;42.872;25.314;2024-03-08T03:01:36;5.63;;;3.10;;
42770;SDS011;28426;42.872;25.314;2024-03-08T03:04:08;4.95;;;3.05;;
42770;SDS011;28426;42.872;25.314;2024-03-08T03:06:41;4.65;;;2.47;;
42770;SDS011;28426;42.872;25.314;2024-03-08T03:09:13;4.72;;;2.70;;
42770;SDS011;28426;42.872;25.314;2024-03-08T03:11:50;6.53;;;2.72;;
42770;SDS011;28426;42.872;25.314;2024-03-08T03:14:21;3.97;;;2.25;;
42770;SDS011;28426;42.872;25.314;2024-03-08T03:16:54;5.80;;;3.30;;
42770;SDS011;28426;42.872;25.314;2024-03-08T03:19:24;5.88;;;3.40;;
42770;SDS011;28426;42.872;25.314;2024-03-08T03:21:59;6.32;;;3.47;;
42770;SDS011;28426;42.872;25.314;2024-03-08T03:24:30;5.75;;;3.10;;
42770;SDS011;28426;42.872;25.314;2024-03-08T03:27:00;4.75;;;2.60;;
42770;SDS011;28426;42.872;25.314;2024-03-08T03:29:38;5.72;;;3.05;;
42770;SDS011;28426;42.872;25.314;2024-03-08T03:32:12;7.40;;;3.05;;
42770;SDS011;28426;42.872;25.314;2024-03-08T03:34:45;5.78;;;2.97;;
42770;SDS011;28426;42.872;25.314;2024-03-08T03:37:22;6.38;;;3.65;;
42770;SDS011;28426;42.872;25.314;2024-03-08T03:39:53;5.30;;;3.42;;
42770;SDS011;28426;42.872;25.314;2024-03-08T03:42:24;6.38;;;3.17;;
42770;SDS011;28426;42.872;25.314;2024-03-08T03:44:55;5.90;;;3.42;;
42770;SDS011;28426;42.872;25.314;2024-03-08T03:47:26;5.57;;;3.20;;
42770;SDS011;28426;42.872;25.314;2024-03-08T03:49:56;6.10;;;2.90;;
42770;SDS011;28426;42.872;25.314;2024-03-08T03:52:33;4.57;;;2.42;;
42770;SDS011;28426;42.872;25.314;2024-03-08T03:55:04;5.63;;;2.88;;
42770;SDS011;28426;42.872;25.314;2024-03-08T03:57:35;5.47;;;2.65;;
42770;SDS011;28426;42.872;25.314;2024-03-08T04:00:06;4.50;;;2.17;;
42770;SDS011;28426;42.872;25.314;2024-03-08T04:02:40;4.63;;;2.47;;
42770;SDS011;28426;42.872;25.314;2024-03-08T04:05:11;7.00;;;3.67;;
42770;SDS011;28426;42.872;25.314;2024-03-08T04:07:45;5.55;;;3.08;;
42770;SDS011;28426;42.872;25.314;2024-03-08T04:10:16;5.15;;;2.60;;
42770;SDS011;28426;42.872;25.314;2024-03-08T04:12:47;5.47;;;2.70;;
42770;SDS011;28426;42.872;25.314;2024-03-08T04:15:17;5.85;;;3.15;;
42770;SDS011;28426;42.872;25.314;2024-03-08T04:17:50;5.95;;;2.58;;
42770;SDS011;28426;42.872;25.314;2024-03-08T04:20:21;4.75;;;2.30;;
42770;SDS011;28426;42.872;25.314;2024-03-08T04:22:55;5.68;;;2.50;;
42770;SDS011;28426;42.872;25.314;2024-03-08T04:25:26;3.65;;;1.80;;
42770;SDS011;28426;42.872;25.314;2024-03-08T04:27:56;4.47;;;2.30;;
42770;SDS011;28426;42.872;25.314;2024-03-08T04:30:27;6.50;;;3.50;;
42770;SDS011;28426;42.872;25.314;2024-03-08T04:32:58;3.90;;;2.20;;
42770;SDS011;28426;42.872;25.314;2024-03-08T04:35:31;4.63;;;2.47;;
42770;SDS011;28426;42.872;25.314;2024-03-08T04:38:04;4.32;;;1.90;;
42770;SDS011;28426;42.872;25.314;2024-03-08T04:40:35;4.97;;;2.20;;
42770;SDS011;28426;42.872;25.314;2024-03-08T04:43:06;5.70;;;2.60;;
42770;SDS011;28426;42.872;25.314;2024-03-08T04:45:38;5.65;;;3.38;;
42770;SDS011;28426;42.872;25.314;2024-03-08T04:48:11;4.43;;;2.75;;
42770;SDS011;28426;42.872;25.314;2024-03-08T04:50:42;4.53;;;2.40;;
42770;SDS011;28426;42.872;25.314;2024-03-08T04:53:16;4.07;;;2.20;;
42770;SDS011;28426;42.872;25.314;2024-03-08T04:55:46;4.65;;;2.42;;
42770;SDS011;28426;42.872;25.314;2024-03-08T04:58:17;4.13;;;2.22;;
42770;SDS011;28426;42.872;25.314;2024-03-08T05:00:48;4.13;;;2.45;;
42770;SDS011;28426;42.872;25.314;2024-03-08T05:03:18;6.07;;;2.63;;
42770;SDS011;28426;42.872;25.314;2024-03-08T05:05:49;5.18;;;2.28;;
42770;SDS011;28426;42.872;25.314;2024-03-08T05:08:22;6.00;;;2.75;;
42770;SDS011;28426;42.872;25.314;2024-03-08T05:10:53;5.93;;;2.22;;
42770;SDS011;28426;42.872;25.314;2024-03-08T05:13:24;5.18;;;2.70;;
42770;SDS011;28426;42.872;25.314;2024-03-08T05:15:55;4.47;;;2.83;;
42770;SDS011;28426;42.872;25.314;2024-03-08T05:18:26;5.30;;;3.13;;
42770;SDS011;28426;42.872;25.314;2024-03-08T05:20:59;5.00;;;2.72;;
42770;SDS011;28426;42.872;25.314;2024-03-08T05:23:33;6.25;;;3.28;;
42770;SDS011;28426;42.872;25.314;2024-03-08T05:26:06;7.90;;;3.55;;
42770;SDS011;28426;42.872;25.314;2024-03-08T05:28:36;6.25;;;3.33;;
42770;SDS011;28426;42.872;25.314;2024-03-08T05:31:07;5.07;;;2.97;;
42770;SDS011;28426;42.872;25.314;2024-03-08T05:33:37;6.85;;;3.70;;
42770;SDS011;28426;42.872;25.314;2024-03-08T05:36:10;6.05;;;3.63;;
42770;SDS011;28426;42.872;25.314;2024-03-08T05:38:45;5.68;;;3.60;;
42770;SDS011;28426;42.872;25.314;2024-03-08T05:41:17;5.78;;;3.83;;
42770;SDS011;28426;42.872;25.314;2024-03-08T05:43:48;6.45;;;3.90;;
42770;SDS011;28426;42.872;25.314;2024-03-08T05:46:19;8.15;;;5.22;;
42770;SDS011;28426;42.872;25.314;2024-03-08T05:48:49;8.50;;;5.22;;
42770;SDS011;28426;42.872;25.314;2024-03-08T05:51:23;9.55;;;5.70;;
42770;SDS011;28426;42.872;25.314;2024-03-08T05:53:57;8.98;;;5.65;;
42770;SDS011;28426;42.872;25.314;2024-03-08T05:56:28;11.00;;;6.50;;
42770;SDS011;28426;42.872;25.314;2024-03-08T05:58:59;10.43;;;6.47;;
42770;SDS011;28426;42.872;25.314;2024-03-08T06:01:30;13.40;;;8.25;;
42770;SDS011;28426;42.872;25.314;2024-03-08T06:04:03;11.13;;;6.60;;
42770;SDS011;28426;42.872;25.314;2024-03-08T06:06:34;13.43;;;8.00;;
42770;SDS011;28426;42.872;25.314;2024-03-08T06:09:07;16.50;;;8.00;;
42770;SDS011;28426;42.872;25.314;2024-03-08T06:11:43;12.88;;;8.20;;
42770;SDS011;28426;42.872;25.314;2024-03-08T06:14:14;12.80;;;8.00;;
42770;SDS011;28426;42.872;25.314;2024-03-08T06:16:46;16.80;;;9.27;;
42770;SDS011;28426;42.872;25.314;2024-03-08T06:19:17;12.85;;;8.27;;
42770;SDS011;28426;42.872;25.314;2024-03-08T06:21:48;13.55;;;8.27;;
42770;SDS011;28426;42.872;25.314;2024-03-08T06:24:21;13.52;;;7.80;;
42770;SDS011;28426;42.872;25.314;2024-03-08T06:26:52;15.75;;;8.65;;
42770;SDS011;28426;42.872;25.314;2024-03-08T06:29:22;19.02;;;9.98;;
42770;SDS011;28426;42.872;25.314;2024-03-08T06:31:53;13.43;;;8.57;;
42770;SDS011;28426;42.872;25.314;2024-03-08T06:34:24;14.55;;;8.30;;
42770;SDS011;28426;42.872;25.314;2024-03-08T06:36:55;13.85;;;8.43;;
42770;SDS011;28426;42.872;25.314;2024-03-08T06:39:30;15.45;;;8.80;;
42770;SDS011;28426;42.872;25.314;2024-03-08T06:42:03;11.50;;;6.97;;
42770;SDS011;28426;42.872;25.314;2024-03-08T06:44:36;13.43;;;7.75;;
42770;SDS011;28426;42.872;25.314;2024-03-08T06:47:16;14.75;;;8.02;;
42770;SDS011;28426;42.872;25.314;2024-03-08T06:49:47;14.93;;;9.02;;
42770;SDS011;28426;42.872;25.314;2024-03-08T06:52:19;26.42;;;13.25;;
42770;SDS011;28426;42.872;25.314;2024-03-08T06:54:52;12.35;;;8.30;;
42770;SDS011;28426;42.872;25.314;2024-03-08T06:57:24;13.82;;;8.45;;
42770;SDS011;28426;42.872;25.314;2024-03-08T06:59:56;16.02;;;8.98;;
42770;SDS011;28426;42.872;25.314;2024-03-08T07:02:29;11.75;;;7.80;;
42770;SDS011;28426;42.872;25.314;2024-03-08T07:05:01;10.73;;;6.55;;
42770;SDS011;28426;42.872;25.314;2024-03-08T07:07:32;12.90;;;8.18;;
42770;SDS011;28426;42.872;25.314;2024-03-08T07:10:06;12.13;;;7.20;;
42770;SDS011;28426;42.872;25.314;2024-03-08T07:12:38;8.40;;;5.88;;
42770;SDS011;28426;42.872;25.314;2024-03-08T07:15:09;12.27;;;7.40;;
42770;SDS011;28426;42.872;25.314;2024-03-08T07:17:42;11.40;;;7.70;;
42770;SDS011;28426;42.872;25.314;2024-03-08T07:20:14;12.25;;;7.57;;
42770;SDS011;28426;42.872;25.314;2024-03-08T07:22:46;12.50;;;7.45;;
42770;SDS011;28426;42.872;25.314;2024-03-08T07:25:20;13.15;;;7.85;;
42770;SDS011;28426;42.872;25.314;2024-03-08T07:27:52;14.48;;;7.95;;
42770;SDS011;28426;42.872;25.314;2024-03-08T07:30:24;12.27;;;8.07;;
42770;SDS011;28426;42.872;25.314;2024-03-08T07:33:09;15.27;;;9.13;;
42770;SDS011;28426;42.872;25.314;2024-03-08T07:35:41;13.65;;;8.82;;
42770;SDS011;28426;42.872;25.314;2024-03-08T07:38:12;10.40;;;6.97;;
42770;SDS011;28426;42.872;25.314;2024-03-08T07:40:46;11.52;;;6.70;;
42770;SDS011;28426;42.872;25.314;2024-03-08T07:43:17;11.73;;;6.88;;
42770;SDS011;28426;42.872;25.314;2024-03-08T07:45:47;11.15;;;7.07;;
42770;SDS011;28426;42.872;25.314;2024-03-08T07:48:20;10.38;;;6.82;;
42770;SDS011;28426;42.872;25.314;2024-03-08T07:50:50;10.60;;;6.47;;
42770;SDS011;28426;42.872;25.314;2024-03-08T07:53:21;9.20;;;6.10;;
42770;SDS011;28426;42.872;25.314;2024-03-08T07:55:56;10.93;;;6.63;;
42770;SDS011;28426;42.872;25.314;2024-03-08T07:58:27;10.15;;;6.57;;
42770;SDS011;28426;42.872;25.314;2024-03-08T08:01:01;10.10;;;6.70;;
42770;SDS011;28426;42.872;25.314;2024-03-08T08:03:31;9.77;;;6.38;;
42770;SDS011;28426;42.872;25.314;2024-03-08T08:06:04;12.05;;;7.50;;
42770;SDS011;28426;42.872;25.314;2024-03-08T08:08:35;15.25;;;8.25;;
42770;SDS011;28426;42.872;25.314;2024-03-08T08:11:09;13.63;;;7.70;;
42770;SDS011;28426;42.872;25.314;2024-03-08T08:13:42;14.35;;;8.05;;
42770;SDS011;28426;42.872;25.314;2024-03-08T08:16:12;12.10;;;7.90;;
42770;SDS011;28426;42.872;25.314;2024-03-08T08:18:43;17.30;;;9.27;;
42770;SDS011;28426;42.872;25.314;2024-03-08T08:21:15;11.93;;;7.40;;
42770;SDS011;28426;42.872;25.314;2024-03-08T08:23:45;16.35;;;8.80;;
42770;SDS011;28426;42.872;25.314;2024-03-08T08:26:19;10.00;;;7.47;;
42770;SDS011;28426;42.872;25.314;2024-03-08T08:28:49;12.25;;;8.13;;
42770;SDS011;28426;42.872;25.314;2024-03-08T08:31:20;13.15;;;7.75;;
42770;SDS011;28426;42.872;25.314;2024-03-08T08:33:51;12.70;;;8.07;;
42770;SDS011;28426;42.872;25.314;2024-03-08T08:36:25;13.40;;;9.02;;
42770;SDS011;28426;42.872;25.314;2024-03-08T08:38:57;13.82;;;8.38;;
42770;SDS011;28426;42.872;25.314;2024-03-08T08:41:33;12.85;;;7.90;;
42770;SDS011;28426;42.872;25.314;2024-03-08T08:44:03;13.65;;;8.60;;
42770;SDS011;28426;42.872;25.314;2024-03-08T08:46:42;12.75;;;8.32;;
42770;SDS011;28426;42.872;25.314;2024-03-08T08:49:13;13.02;;;8.57;;
42770;SDS011;28426;42.872;25.314;2024-03-08T08:51:50;13.48;;;8.35;;
42770;SDS011;28426;42.872;25.314;2024-03-08T08:54:24;13.50;;;8.48;;
42770;SDS011;28426;42.872;25.314;2024-03-08T08:56:58;13.13;;;8.30;;
42770;SDS011;28426;42.872;25.314;2024-03-08T08:59:34;12.40;;;8.40;;
42770;SDS011;28426;42.872;25.314;2024-03-08T09:02:06;13.88;;;7.93;;
42770;SDS011;28426;42.872;25.314;2024-03-08T09:04:41;14.68;;;9.25;;
42770;SDS011;28426;42.872;25.314;2024-03-08T09:07:12;13.43;;;8.75;;
42770;SDS011;28426;42.872;25.314;2024-03-08T09:09:43;14.45;;;9.93;;
42770;SDS011;28426;42.872;25.314;2024-03-08T09:12:16;17.95;;;10.75;;
42770;SDS011;28426;42.872;25.314;2024-03-08T09:14:47;17.25;;;10.20;;
42770;SDS011;28426;42.872;25.314;2024-03-08T09:17:18;18.05;;;11.68;;
42770;SDS011;28426;42.872;25.314;2024-03-08T09:19:49;18.70;;;12.10;;
42770;SDS011;28426;42.872;25.314;2024-03-08T09:22:21;21.38;;;13.18;;
42770;SDS011;28426;42.872;25.314;2024-03-08T09:24:52;15.85;;;10.40;;
42770;SDS011;28426;42.872;25.314;2024-03-08T09:27:27;18.15;;;11.20;;
42770;SDS011;28426;42.872;25.314;2024-03-08T09:29:58;14.77;;;8.32;;
42770;SDS011;28426;42.872;25.314;2024-03-08T09:32:30;13.13;;;7.70;;
42770;SDS011;28426;42.872;25.314;2024-03-08T09:35:01;13.10;;;8.23;;
42770;SDS011;28426;42.872;25.314;2024-03-08T09:37:34;12.95;;;8.52;;
42770;SDS011;28426;42.872;25.314;2024-03-08T09:40:06;12.55;;;7.82;;
42770;SDS011;28426;42.872;25.314;2024-03-08T09:42:46;12.43;;;7.78;;
42770;SDS011;28426;42.872;25.314;2024-03-08T09:45:20;14.27;;;8.82;;
42770;SDS011;28426;42.872;25.314;2024-03-08T09:47:52;14.57;;;9.05;;
42770;SDS011;28426;42.872;25.314;2024-03-08T09:50:23;12.63;;;8.13;;
42770;SDS011;28426;42.872;25.314;2024-03-08T09:52:55;13.13;;;8.40;;
42770;SDS011;28426;42.872;25.314;2024-03-08T09:55:27;14.40;;;8.48;;
42770;SDS011;28426;42.872;25.314;2024-03-08T09:58:05;16.00;;;9.35;;
42770;SDS011;28426;42.872;25.314;2024-03-08T10:00:48;13.07;;;8.02;;
42770;SDS011;28426;42.872;25.314;2024-03-08T10:03:19;13.68;;;8.75;;
42770;SDS011;28426;42.872;25.314;2024-03-08T10:05:50;15.88;;;9.25;;
42770;SDS011;28426;42.872;25.314;2024-03-08T10:08:21;12.85;;;8.30;;
42770;SDS011;28426;42.872;25.314;2024-03-08T10:10:51;14.90;;;8.13;;
42770;SDS011;28426;42.872;25.314;2024-03-08T10:13:25;13.98;;;8.77;;
42770;SDS011;28426;42.872;25.314;2024-03-08T10:15:57;15.17;;;9.17;;
42770;SDS011;28426;42.872;25.314;2024-03-08T10:18:28;16.23;;;9.90;;
42770;SDS011;28426;42.872;25.314;2024-03-08T10:21:03;14.43;;;7.80;;
42770;SDS011;28426;42.872;25.314;2024-03-08T10:23:34;11.00;;;7.30;;
42770;SDS011;28426;42.872;25.314;2024-03-08T10:26:09;15.80;;;10.02;;
42770;SDS011;28426;42.872;25.314;2024-03-08T10:28:45;16.73;;;9.75;;
42770;SDS011;28426;42.872;25.314;2024-03-08T10:31:18;17.10;;;9.65;;
42770;SDS011;28426;42.872;25.314;2024-03-08T10:33:49;15.45;;;9.00;;
42770;SDS011;28426;42.872;25.314;2024-03-08T10:36:20;16.92;;;9.77;;
42770;SDS011;28426;42.872;25.314;2024-03-08T10:38:51;18.85;;;8.65;;
42770;SDS011;28426;42.872;25.314;2024-03-08T10:41:22;15.40;;;9.00;;
42770;SDS011;28426;42.872;25.314;2024-03-08T10:44:09;18.20;;;10.85;;
42770;SDS011;28426;42.872;25.314;2024-03-08T10:46:52;17.08;;;9.80;;
42770;SDS011;28426;42.872;25.314;2024-03-08T10:49:39;17.08;;;10.50;;
42770;SDS011;28426;42.872;25.314;2024-03-08T10:52:20;16.77;;;10.38;;
42770;SDS011;28426;42.872;25.314;2024-03-08T10:54:52;18.23;;;10.50;;
42770;SDS011;28426;42.872;25.314;2024-03-08T10:57:26;17.33;;;10.63;;
42770;SDS011;28426;42.872;25.314;2024-03-08T11:00:01;18.70;;;10.68;;
42770;SDS011;28426;42.872;25.314;2024-03-08T11:02:37;17.38;;;10.88;;
42770;SDS011;28426;42.872;25.314;2024-03-08T11:05:09;18.17;;;10.90;;
42770;SDS011;28426;42.872;25.314;2024-03-08T11:07:43;17.95;;;10.75;;
42770;SDS011;28426;42.872;25.314;2024-03-08T11:10:20;18.95;;;11.43;;
42770;SDS011;28426;42.872;25.314;2024-03-08T11:12:51;17.42;;;10.52;;
42770;SDS011;28426;42.872;25.314;2024-03-08T11:15:24;19.65;;;11.00;;
42770;SDS011;28426;42.872;25.314;2024-03-08T11:17:59;18.92;;;10.85;;
42770;SDS011;28426;42.872;25.314;2024-03-08T11:20:32;19.73;;;11.55;;
42770;SDS011;28426;42.872;25.314;2024-03-08T11:23:04;19.90;;;12.32;;
42770;SDS011;28426;42.872;25.314;2024-03-08T11:25:37;23.00;;;12.57;;
42770;SDS011;28426;42.872;25.314;2024-03-08T11:33:50;23.70;;;13.43;;
42770;SDS011;28426;42.872;25.314;2024-03-08T11:36:21;22.70;;;13.27;;
42770;SDS011;28426;42.872;25.314;2024-03-08T11:38:53;23.58;;;12.43;;
42770;SDS011;28426;42.872;25.314;2024-03-08T11:41:24;25.15;;;13.93;;
42770;SDS011;28426;42.872;25.314;2024-03-08T11:44:02;22.15;;;13.40;;
42770;SDS011;28426;42.872;25.314;2024-03-08T11:46:36;24.65;;;12.88;;
42770;SDS011;28426;42.872;25.314;2024-03-08T11:49:16;30.90;;;15.90;;
42770;SDS011;28426;42.872;25.314;2024-03-08T11:51:47;27.00;;;14.98;;
42770;SDS011;28426;42.872;25.314;2024-03-08T11:54:23;22.05;;;12.60;;
42770;SDS011;28426;42.872;25.314;2024-03-08T11:56:54;23.05;;;13.38;;
42770;SDS011;28426;42.872;25.314;2024-03-08T11:59:27;20.70;;;12.13;;
42770;SDS011;28426;42.872;25.314;2024-03-08T12:01:59;20.85;;;12.32;;
42770;SDS011;28426;42.872;25.314;2024-03-08T12:04:34;21.42;;;12.18;;
42770;SDS011;28426;42.872;25.314;2024-03-08T12:07:05;22.20;;;12.13;;
42770;SDS011;28426;42.872;25.314;2024-03-08T12:09:41;21.58;;;13.02;;
42770;SDS011;28426;42.872;25.314;2024-03-08T12:12:14;20.00;;;11.93;;
42770;SDS011;28426;42.872;25.314;2024-03-08T12:14:45;19.27;;;11.68;;
42770;SDS011;28426;42.872;25.314;2024-03-08T12:17:16;20.40;;;11.57;;
42770;SDS011;28426;42.872;25.314;2024-03-08T12:19:50;20.45;;;11.20;;
42770;SDS011;28426;42.872;25.314;2024-03-08T12:22:24;19.17;;;11.93;;
42770;SDS011;28426;42.872;25.314;2024-03-08T12:25:05;16.48;;;10.50;;
42770;SDS011;28426;42.872;25.314;2024-03-08T12:27:37;21.10;;;11.95;;
42770;SDS011;28426;42.872;25.314;2024-03-08T12:30:21;17.75;;;11.20;;
42770;SDS011;28426;42.872;25.314;2024-03-08T12:35:31;19.83;;;10.57;;
42770;SDS011;28426;42.872;25.314;2024-03-08T12:38:02;20.42;;;10.52;;
42770;SDS011;28426;42.872;25.314;2024-03-08T12:40:33;18.30;;;10.77;;
42770;SDS011;28426;42.872;25.314;2024-03-08T12:45:42;17.58;;;10.23;;
42770;SDS011;28426;42.872;25.314;2024-03-08T12:48:14;20.02;;;10.65;;
42770;SDS011;28426;42.872;25.314;2024-03-08T12:50:48;21.95;;;12.60;;
42770;SDS011;28426;42.872;25.314;2024-03-08T12:53:22;19.15;;;11.07;;
42770;SDS011;28426;42.872;25.314;2024-03-08T12:55:56;30.80;;;12.18;;
42770;SDS011;28426;42.872;25.314;2024-03-08T12:58:27;20.77;;;11.80;;
42770;SDS011;28426;42.872;25.314;2024-03-08T13:00:58;28.30;;;12.05;;
42770;SDS011;28426;42.872;25.314;2024-03-08T13:03:31;19.23;;;11.60;;
42770;SDS011;28426;42.872;25.314;2024-03-08T13:06:05;18.63;;;11.00;;
42770;SDS011;28426;42.872;25.314;2024-03-08T13:08:36;24.33;;;13.43;;
42770;SDS011;28426;42.872;25.314;2024-03-08T13:11:08;19.80;;;11.48;;
42770;SDS011;28426;42.872;25.314;2024-03-08T13:13:39;17.05;;;10.57;;
42770;SDS011;28426;42.872;25.314;2024-03-08T13:16:10;21.00;;;11.07;;
42770;SDS011;28426;42.872;25.314;2024-03-08T13:18:42;20.35;;;10.93;;
42770;SDS011;28426;42.872;25.314;2024-03-08T13:21:16;25.05;;;12.40;;
42770;SDS011;28426;42.872;25.314;2024-03-08T13:23:51;21.98;;;10.50;;
42770;SDS011;28426;42.872;25.314;2024-03-08T13:26:22;20.00;;;11.60;;
42770;SDS011;28426;42.872;25.314;2024-03-08T13:28:57;22.08;;;11.65;;
42770;SDS011;28426;42.872;25.314;2024-03-08T13:31:28;29.55;;;13.15;;
42770;SDS011;28426;42.872;25.314;2024-03-08T13:33:59;27.67;;;12.70;;
42770;SDS011;28426;42.872;25.314;2024-03-08T13:36:35;20.02;;;11.55;;
42770;SDS011;28426;42.872;25.314;2024-03-08T13:39:09;17.55;;;10.85;;
42770;SDS011;28426;42.872;25.314;2024-03-08T13:41:42;21.40;;;12.93;;
42770;SDS011;28426;42.872;25.314;2024-03-08T13:44:13;25.02;;;12.85;;
42770;SDS011;28426;42.872;25.314;2024-03-08T13:46:46;25.58;;;13.98;;
42770;SDS011;28426;42.872;25.314;2024-03-08T13:49:20;25.20;;;13.75;;
42770;SDS011;28426;42.872;25.314;2024-03-08T13:51:56;31.92;;;13.13;;
42770;SDS011;28426;42.872;25.314;2024-03-08T13:54:27;25.23;;;12.63;;
42770;SDS011;28426;42.872;25.314;2024-03-08T13:56:58;30.48;;;13.77;;
42770;SDS011;28426;42.872;25.314;2024-03-08T13:59:30;25.40;;;13.35;;
42770;SDS011;28426;42.872;25.314;2024-03-08T14:02:02;34.20;;;13.50;;
42770;SDS011;28426;42.872;25.314;2024-03-08T14:04:33;40.13;;;16.73;;
42770;SDS011;28426;42.872;25.314;2024-03-08T14:07:08;41.90;;;15.02;;
42770;SDS011;28426;42.872;25.314;2024-03-08T14:09:40;28.23;;;13.90;;
42770;SDS011;28426;42.872;25.314;2024-03-08T14:12:11;30.48;;;15.75;;
42770;SDS011;28426;42.872;25.314;2024-03-08T14:14:43;26.55;;;15.00;;
42770;SDS011;28426;42.872;25.314;2024-03-08T14:17:14;24.77;;;14.20;;
42770;SDS011;28426;42.872;25.314;2024-03-08T14:19:45;31.45;;;15.50;;
42770;SDS011;28426;42.872;25.314;2024-03-08T14:22:20;35.42;;;15.70;;
42770;SDS011;28426;42.872;25.314;2024-03-08T14:24:51;26.23;;;15.65;;
42770;SDS011;28426;42.872;25.314;2024-03-08T14:27:23;26.05;;;15.13;;
42770;SDS011;28426;42.872;25.314;2024-03-08T14:29:54;38.05;;;17.13;;
42770;SDS011;28426;42.872;25.314;2024-03-08T14:32:25;30.33;;;15.82;;
42770;SDS011;28426;42.872;25.314;2024-03-08T14:34:55;31.88;;;16.23;;
42770;SDS011;28426;42.872;25.314;2024-03-08T14:37:29;40.85;;;15.85;;
42770;SDS011;28426;42.872;25.314;2024-03-08T14:39:59;45.63;;;17.67;;
42770;SDS011;28426;42.872;25.314;2024-03-08T14:42:32;38.40;;;16.73;;
42770;SDS011;28426;42.872;25.314;2024-03-08T14:45:03;39.90;;;17.92;;
42770;SDS011;28426;42.872;25.314;2024-03-08T14:47:34;32.15;;;16.67;;
42770;SDS011;28426;42.872;25.314;2024-03-08T14:50:05;40.10;;;17.48;;
42770;SDS011;28426;42.872;25.314;2024-03-08T14:52:39;40.70;;;17.42;;
42770;SDS011;28426;42.872;25.314;2024-03-08T14:55:10;33.22;;;17.60;;
42770;SDS011;28426;42.872;25.314;2024-03-08T14:57:42;44.10;;;17.98;;
42770;SDS011;28426;42.872;25.314;2024-03-08T15:00:13;33.83;;;18.50;;
42770;SDS011;28426;42.872;25.314;2024-03-08T15:02:54;38.60;;;17.55;;
42770;SDS011;28426;42.872;25.314;2024-03-08T15:05:25;45.95;;;17.92;;